Time;durP1;ratioP1;P1;durP2;ratioP2;P2;SDS_P1;SDS_P2;PMS_P1;PMS_P2;Temp;Humidity;BMP_temperature;BMP_pressure;BME280_temperature;BME280_humidity;BME280_pressure;Samples;Min_cycle;Max_cycle;Signal;HPM_P1;HPM_P2
2022/08/05 00:00:46;;;;;;;563.25;531.53;;;;;;;27.49;47.26;96299.03;5033421;28;20178;-67
2022/08/05 00:03:19;;;;;;;520.33;491.25;;;;;;;27.48;47.14;96296.69;5033174;28;20210;-68
2022/08/05 00:05:44;;;;;;;441.48;417.13;;;;;;;27.56;46.76;96293.06;5033037;28;20209;-68
2022/08/05 00:08:10;;;;;;;495.10;467.38;;;;;;;27.64;46.78;96290.19;5032799;28;20214;-68
2022/08/05 00:10:35;;;;;;;485.00;458.13;;;;;;;27.52;46.91;96294.91;5032845;28;20209;-68
2022/08/05 00:13:00;;;;;;;419.00;395.67;;;;;;;27.31;46.78;96295.88;5033255;28;20315;-68
2022/08/05 00:15:26;;;;;;;405.67;383.20;;;;;;;27.23;47.02;96296.06;5032963;28;20195;-67
2022/08/05 00:17:51;;;;;;;391.38;369.67;;;;;;;27.39;46.72;96288.00;5032831;28;20182;-68
2022/08/05 00:20:16;;;;;;;425.52;402.08;;;;;;;27.68;45.92;96295.69;5032460;28;20282;-68
2022/08/05 00:22:42;;;;;;;318.38;301.02;;;;;;;27.68;46.08;96293.00;5031753;28;20221;-68
2022/08/05 00:25:07;;;;;;;312.92;295.58;;;;;;;27.69;45.55;96299.94;5032654;28;20249;-69
2022/08/05 00:27:32;;;;;;;237.38;224.43;;;;;;;27.74;45.64;96299.69;5032674;28;20236;-70
2022/08/05 00:29:58;;;;;;;247.02;233.52;;;;;;;27.65;45.53;96302.53;5032719;28;20182;-69
2022/08/05 00:32:23;;;;;;;190.90;180.55;;;;;;;27.72;45.46;96296.53;5032817;28;20212;-69
2022/08/05 00:34:49;;;;;;;188.20;177.57;;;;;;;27.76;45.48;96293.91;5031122;28;20182;-70
2022/08/05 00:37:14;;;;;;;150.25;142.18;;;;;;;27.78;45.13;96288.97;5015186;28;20179;-69
2022/08/05 00:39:41;;;;;;;129.07;122.03;;;;;;;27.80;44.46;96294.81;5031649;28;20220;-69
2022/08/05 00:42:07;;;;;;;82.68;78.13;;;;;;;27.80;43.91;96300.19;5031869;28;20222;-69
2022/08/05 00:44:33;;;;;;;81.50;77.32;;;;;;;27.85;43.48;96300.72;5032679;28;20579;-69
2022/08/05 00:46:59;;;;;;;103.88;98.43;;;;;;;27.96;43.01;96309.81;5032288;28;20182;-69
2022/08/05 00:49:24;;;;;;;201.00;190.85;;;;;;;27.87;42.60;96309.22;5032803;28;20197;-69
2022/08/05 00:51:49;;;;;;;219.48;208.32;;;;;;;27.71;42.99;96313.81;5032838;28;20186;-69
2022/08/05 00:54:15;;;;;;;230.45;218.73;;;;;;;27.79;43.44;96309.41;5031821;28;20266;-69
2022/08/05 00:56:40;;;;;;;197.77;187.52;;;;;;;27.65;43.97;96317.91;5032563;28;20207;-70
2022/08/05 00:59:06;;;;;;;134.38;127.30;;;;;;;27.73;43.91;96322.34;5032633;28;20187;-69
2022/08/05 01:01:31;;;;;;;117.50;111.57;;;;;;;27.60;44.74;96320.88;5032648;28;20182;-69
2022/08/05 01:03:57;;;;;;;108.72;102.97;;;;;;;27.54;44.38;96333.81;5032242;28;20206;-69
2022/08/05 01:06:22;;;;;;;105.75;99.88;;;;;;;27.30;44.33;96348.19;5032334;28;20554;-69
2022/08/05 01:08:48;;;;;;;63.78;60.08;;;;;;;26.83;42.22;96342.63;5031824;28;20178;-66
2022/08/05 01:11:20;;;;;;;84.18;79.90;;;;;;;26.75;42.55;96354.28;5035503;28;20218;-65
2022/08/05 01:14:01;;;;;;;67.88;64.25;;;;;;;26.48;42.82;96355.03;5032190;28;20563;-65
2022/08/05 01:16:57;;;;;;;44.55;41.90;;;;;;;26.35;43.36;96345.44;5029859;28;20277;-66
2022/08/05 01:19:38;;;;;;;162.00;153.55;;;;;;;26.06;44.91;96351.81;5032134;28;20187;-65
2022/08/05 01:22:32;;;;;;;221.32;209.68;;;;;;;25.93;45.08;96358.31;5031330;28;20182;-66
2022/08/05 01:25:18;;;;;;;35.50;33.42;;;;;;;25.79;46.37;96364.03;5026396;28;20233;-65
2022/08/05 01:27:58;;;;;;;49.00;46.33;;;;;;;25.59;47.29;96349.53;5031879;28;20267;-65
2022/08/05 01:30:28;;;;;;;351.70;332.92;;;;;;;25.44;48.01;96360.91;5031557;28;20262;-66
2022/08/05 01:32:57;;;;;;;552.42;521.03;;;;;;;25.25;48.99;96360.63;5031660;28;20186;-65
2022/08/05 01:35:27;;;;;;;478.08;451.13;;;;;;;25.33;48.94;96369.69;5031902;28;20208;-65
2022/08/05 01:37:55;;;;;;;260.10;246.48;;;;;;;25.15;49.51;96369.88;5032111;28;20189;-65
2022/08/05 01:40:25;;;;;;;58.00;54.45;;;;;;;25.13;50.27;96374.00;5031312;28;20190;-65
2022/08/05 01:42:52;;;;;;;28.73;26.98;;;;;;;24.96;50.82;96393.72;5030831;28;20277;-68
2022/08/05 01:45:19;;;;;;;86.20;81.45;;;;;;;24.86;51.62;96380.66;5031460;28;20191;-65
2022/08/05 01:47:48;;;;;;;219.25;207.75;;;;;;;24.73;52.35;96374.47;5034138;28;20186;-65
2022/08/05 01:50:21;;;;;;;266.65;252.73;;;;;;;24.75;52.42;96399.03;5034956;28;20261;-65
2022/08/05 01:52:48;;;;;;;160.43;152.00;;;;;;;24.71;52.76;96402.69;5034950;28;20553;-66
2022/08/05 01:55:17;;;;;;;43.42;41.05;;;;;;;24.56;53.59;96390.66;5026921;28;20187;-65
2022/08/05 01:57:45;;;;;;;50.10;47.15;;;;;;;24.61;53.35;96397.72;5035167;28;20186;-66
2022/08/05 02:00:12;;;;;;;85.63;80.68;;;;;;;24.61;53.55;96405.78;5035622;28;20186;-65
2022/08/05 02:02:42;;;;;;;75.10;70.68;;;;;;;24.71;53.52;96411.53;5034891;28;20194;-65
2022/08/05 02:05:11;;;;;;;228.95;216.65;;;;;;;24.49;54.71;96398.44;5034879;28;20211;-65
2022/08/05 02:07:37;;;;;;;520.15;492.55;;;;;;;24.34;55.15;96399.78;5032803;28;20183;-65
2022/08/05 02:10:04;;;;;;;580.25;548.25;;;;;;;24.44;54.84;96396.72;5034768;28;20581;-65
2022/08/05 02:12:48;;;;;;;565.67;533.75;;;;;;;24.43;55.15;96391.69;5034875;28;20352;-65
2022/08/05 02:15:21;;;;;;;435.88;411.25;;;;;;;24.38;55.86;96392.66;5035005;28;20182;-65
2022/08/05 02:17:57;;;;;;;207.30;195.65;;;;;;;24.32;56.11;96393.97;5035195;28;20187;-65
2022/08/05 02:20:25;;;;;;;139.27;131.48;;;;;;;24.38;55.67;96390.00;5035152;28;20654;-65
2022/08/05 02:22:57;;;;;;;113.10;106.40;;;;;;;24.34;56.01;96396.31;5034808;28;20202;-65
2022/08/05 02:25:35;;;;;;;61.25;57.60;;;;;;;24.17;56.68;96393.69;5034358;28;20641;-64
2022/08/05 02:28:03;;;;;;;44.30;41.65;;;;;;;24.17;57.10;96397.16;5034993;28;20193;-65
2022/08/05 02:30:38;;;;;;;70.75;67.00;;;;;;;24.28;56.49;96406.44;5033500;28;20217;-65
2022/08/05 02:33:07;;;;;;;99.05;93.90;;;;;;;24.36;56.25;96392.19;5034990;28;20217;-65
2022/08/05 02:35:34;;;;;;;144.80;137.23;;;;;;;24.28;56.77;96395.72;5033593;28;20193;-64
2022/08/05 02:38:01;;;;;;;194.32;184.32;;;;;;;24.16;57.45;96400.16;5034606;28;20175;-64
2022/08/05 02:40:26;;;;;;;218.38;207.20;;;;;;;24.30;56.77;96400.75;5034385;28;20190;-64
2022/08/05 02:42:54;;;;;;;191.88;182.18;;;;;;;24.31;57.16;96402.31;5033405;28;20197;-65
2022/08/05 02:45:21;;;;;;;94.97;89.65;;;;;;;24.29;57.22;96409.91;5034095;28;20229;-64
2022/08/05 02:47:49;;;;;;;63.88;60.03;;;;;;;24.20;57.27;96415.28;5033971;28;20237;-65
2022/08/05 02:50:15;;;;;;;48.20;45.30;;;;;;;24.15;57.74;96417.34;5034169;28;20194;-65
2022/08/05 02:52:43;;;;;;;173.00;163.38;;;;;;;24.14;57.88;96419.22;5034421;28;20190;-64
2022/08/05 02:55:09;;;;;;;291.00;275.20;;;;;;;24.06;58.28;96417.38;5033402;28;20187;-65
2022/08/05 02:57:38;;;;;;;342.10;323.50;;;;;;;24.18;57.77;96420.19;5029695;28;20225;-65
2022/08/05 03:00:04;;;;;;;372.23;351.73;;;;;;;24.28;57.53;96411.78;5029230;28;20205;-67
2022/08/05 03:02:42;;;;;;;379.75;358.88;;;;;;;24.36;57.40;96412.84;5029620;28;20274;-65
2022/08/05 03:05:10;;;;;;;373.52;352.70;;;;;;;24.49;56.97;96413.72;5026784;28;20203;-65
2022/08/05 03:07:37;;;;;;;339.42;320.40;;;;;;;24.36;57.05;96418.97;5028210;28;20194;-66
2022/08/05 03:10:03;;;;;;;333.92;315.50;;;;;;;24.50;57.25;96412.63;5030863;28;20179;-65
2022/08/05 03:12:33;;;;;;;311.95;294.73;;;;;;;24.57;56.70;96427.09;5034004;28;20270;-64
2022/08/05 03:14:59;;;;;;;291.13;275.27;;;;;;;24.42;57.32;96419.59;5033561;28;20189;-64
2022/08/05 03:17:25;;;;;;;259.23;245.55;;;;;;;24.49;57.51;96440.53;5033733;28;20183;-64
2022/08/05 03:19:51;;;;;;;244.68;231.48;;;;;;;24.41;57.75;96442.13;5033864;28;20182;-64
2022/08/05 03:22:16;;;;;;;226.73;214.60;;;;;;;24.41;57.57;96436.75;5033426;28;20556;-65
2022/08/05 03:24:43;;;;;;;216.30;204.80;;;;;;;24.29;58.22;96439.38;5033323;28;20225;-65
2022/08/05 03:27:09;;;;;;;180.13;170.70;;;;;;;24.42;57.64;96443.69;5033610;28;20250;-64
2022/08/05 03:29:35;;;;;;;152.07;143.43;;;;;;;24.40;58.01;96433.34;5033720;28;20220;-65
2022/08/05 03:32:01;;;;;;;120.05;113.75;;;;;;;24.25;58.47;96447.25;5033657;28;20527;-64
2022/08/05 03:34:27;;;;;;;102.68;97.38;;;;;;;24.30;58.49;96444.38;5033264;28;20194;-64
2022/08/05 03:36:53;;;;;;;90.63;85.95;;;;;;;24.30;58.40;96446.28;5033329;28;20186;-65
2022/08/05 03:39:18;;;;;;;89.60;84.60;;;;;;;24.35;57.98;96452.25;5033326;28;20210;-65
2022/08/05 03:41:43;;;;;;;104.07;98.43;;;;;;;24.39;58.18;96445.16;5032585;28;20277;-64
2022/08/05 03:44:09;;;;;;;116.75;110.43;;;;;;;24.15;58.81;96439.56;5033073;28;20743;-64
2022/08/05 03:46:35;;;;;;;133.60;126.40;;;;;;;24.17;58.74;96441.91;5031973;28;20209;-64
2022/08/05 03:49:00;;;;;;;145.75;137.93;;;;;;;24.08;59.29;96441.94;5032879;28;20282;-64
2022/08/05 03:51:38;;;;;;;167.43;158.70;;;;;;;24.15;59.21;96449.47;5033451;28;20190;-65
2022/08/05 03:54:22;;;;;;;171.43;162.43;;;;;;;24.07;59.28;96440.38;5033116;28;20175;-65
2022/08/05 03:56:48;;;;;;;175.45;166.30;;;;;;;24.17;59.12;96440.03;5030290;28;20190;-66
2022/08/05 03:59:19;;;;;;;164.98;156.05;;;;;;;24.07;59.74;96434.25;5027959;28;20187;-64
2022/08/05 04:01:46;;;;;;;165.30;156.30;;;;;;;24.14;59.57;96429.94;5028404;28;20896;-64
2022/08/05 04:04:14;;;;;;;160.50;151.65;;;;;;;24.08;59.89;96417.03;5026860;28;20222;-64
2022/08/05 04:06:40;;;;;;;156.32;147.35;;;;;;;24.09;59.89;96413.25;5028354;28;20663;-65
2022/08/05 04:09:06;;;;;;;151.23;142.95;;;;;;;23.85;60.48;96416.53;5026792;28;20193;-66
2022/08/05 04:11:33;;;;;;;149.82;141.60;;;;;;;24.11;59.78;96422.56;5031822;28;20281;-64
2022/08/05 04:13:59;;;;;;;132.55;124.82;;;;;;;23.83;60.76;96435.59;5032614;28;20654;-64
2022/08/05 04:16:25;;;;;;;139.60;131.75;;;;;;;23.77;60.97;96439.53;5032662;28;20206;-64
2022/08/05 04:18:51;;;;;;;133.05;125.60;;;;;;;23.83;61.25;96438.25;5032268;28;20527;-64
2022/08/05 04:21:16;;;;;;;135.77;128.18;;;;;;;23.88;61.32;96456.03;5032264;28;20187;-64
2022/08/05 04:23:42;;;;;;;126.72;119.80;;;;;;;24.13;60.16;96463.19;5032185;28;20535;-65
2022/08/05 04:26:08;;;;;;;129.07;121.90;;;;;;;23.84;61.03;96463.13;5032217;28;20276;-65
2022/08/05 04:28:33;;;;;;;132.95;124.95;;;;;;;23.89;60.66;96469.09;5032284;28;20265;-64
2022/08/05 04:30:59;;;;;;;135.63;127.95;;;;;;;23.85;60.87;96475.44;5032503;28;20187;-64
2022/08/05 04:33:25;;;;;;;130.45;123.32;;;;;;;23.65;61.24;96473.41;5032480;28;20265;-65
2022/08/05 04:35:51;;;;;;;125.07;117.95;;;;;;;23.77;60.88;96482.34;5032143;28;20178;-65
2022/08/05 04:38:17;;;;;;;126.88;119.82;;;;;;;23.65;61.33;96498.28;5031695;28;20196;-68
2022/08/05 04:40:42;;;;;;;129.77;122.43;;;;;;;23.86;60.64;96512.56;5031946;28;20654;-65
2022/08/05 04:43:07;;;;;;;119.47;112.88;;;;;;;23.84;61.00;96519.34;5031992;28;20636;-66
2022/08/05 04:45:33;;;;;;;106.03;100.18;;;;;;;23.95;61.03;96521.38;5031797;28;20277;-65
2022/08/05 04:48:11;;;;;;;104.93;99.20;;;;;;;23.78;61.55;96529.44;5031641;28;20218;-65
2022/08/05 04:50:44;;;;;;;99.38;93.88;;;;;;;23.85;61.09;96531.66;5032058;28;20190;-67
2022/08/05 04:53:11;;;;;;;87.60;82.72;;;;;;;23.74;61.82;96535.75;5031595;28;20647;-66
2022/08/05 04:55:38;;;;;;;87.30;82.47;;;;;;;23.77;61.42;96540.47;5029807;28;20218;-67
2022/08/05 04:58:04;;;;;;;81.15;76.90;;;;;;;23.82;61.91;96548.31;5027295;28;20194;-66
2022/08/05 05:00:31;;;;;;;111.78;105.97;;;;;;;23.95;61.55;96563.44;5028708;28;20179;-64
2022/08/05 05:02:56;;;;;;;109.47;103.47;;;;;;;23.97;61.24;96555.84;5031337;28;20179;-65
2022/08/05 05:05:22;;;;;;;113.47;107.63;;;;;;;23.95;61.50;96564.22;5031941;28;20217;-66
2022/08/05 05:07:47;;;;;;;107.93;102.18;;;;;;;23.96;61.20;96592.56;5032225;28;20197;-67
2022/08/05 05:10:13;;;;;;;110.03;104.15;;;;;;;23.88;61.84;96625.50;5031869;28;20198;-66
2022/08/05 05:12:38;;;;;;;110.47;104.40;;;;;;;23.79;61.65;96626.59;5032219;28;20190;-66
2022/08/05 05:15:04;;;;;;;101.43;95.97;;;;;;;23.90;61.70;96622.50;5032346;28;20178;-66
2022/08/05 05:17:40;;;;;;;97.35;91.80;;;;;;;23.98;61.88;96633.19;5032363;28;20186;-66
2022/08/05 05:20:07;;;;;;;113.75;107.40;;;;;;;24.52;60.06;96627.50;5032653;28;20643;-66
2022/08/05 05:22:33;;;;;;;143.77;135.25;;;;;;;25.02;58.27;96622.28;5035760;28;20241;-67
2022/08/05 05:24:58;;;;;;;75.85;71.45;;;;;;;25.02;58.18;96619.59;5035618;28;20214;-66
2022/08/05 05:27:24;;;;;;;96.55;90.95;;;;;;;25.35;57.18;96630.47;5036209;28;20191;-66
2022/08/05 05:29:50;;;;;;;103.03;96.88;;;;;;;25.49;57.07;96636.38;5035708;28;20189;-66
2022/08/05 05:32:15;;;;;;;255.02;241.25;;;;;;;25.79;55.91;96632.56;5036035;28;20191;-67
2022/08/05 05:34:40;;;;;;;436.35;411.45;;;;;;;25.95;55.46;96644.28;5035516;28;20256;-67
2022/08/05 05:37:06;;;;;;;458.88;432.52;;;;;;;25.72;55.98;96634.19;5035946;28;20198;-67
2022/08/05 05:39:31;;;;;;;409.15;385.88;;;;;;;25.94;54.99;96642.69;5035641;28;20194;-67
2022/08/05 05:41:56;;;;;;;360.05;339.83;;;;;;;26.01;55.37;96648.34;5034544;28;20190;-66
2022/08/05 05:44:22;;;;;;;365.75;344.38;;;;;;;26.37;54.43;96649.59;5035410;28;20210;-67
2022/08/05 05:46:47;;;;;;;267.58;252.38;;;;;;;26.68;53.72;96662.59;5034280;28;20186;-67
2022/08/05 05:49:12;;;;;;;242.27;228.45;;;;;;;26.49;54.47;96673.84;5030346;28;20179;-68
2022/08/05 05:51:38;;;;;;;217.20;205.07;;;;;;;26.20;55.00;96682.78;5032583;28;20251;-67
2022/08/05 05:54:03;;;;;;;221.07;208.77;;;;;;;25.78;55.58;96687.38;5035263;28;20190;-67
2022/08/05 05:56:31;;;;;;;216.77;204.82;;;;;;;26.11;55.29;96697.41;5035661;28;20190;-67
2022/08/05 05:58:56;;;;;;;232.50;219.65;;;;;;;26.21;55.08;96697.00;5035555;28;20183;-67
2022/08/05 06:01:21;;;;;;;234.68;221.55;;;;;;;25.95;55.61;96697.22;5035627;28;20196;-66
2022/08/05 06:03:47;;;;;;;218.48;206.48;;;;;;;26.39;55.08;96698.47;5034921;28;20234;-67
2022/08/05 06:06:12;;;;;;;225.60;212.55;;;;;;;26.03;55.85;96696.34;5035314;28;20640;-69
2022/08/05 06:08:37;;;;;;;207.15;195.95;;;;;;;25.26;57.63;96693.00;5034824;28;20183;-68
2022/08/05 06:11:03;;;;;;;198.52;187.48;;;;;;;26.22;55.35;96706.63;5035299;28;20542;-67
2022/08/05 06:13:28;;;;;;;213.10;201.10;;;;;;;26.28;55.09;96705.34;5035349;28;20988;-67
2022/08/05 06:15:54;;;;;;;259.58;245.52;;;;;;;26.76;54.30;96712.78;5035448;28;20589;-66
2022/08/05 06:18:19;;;;;;;361.10;341.02;;;;;;;26.68;53.52;96692.97;5034786;28;20191;-68
2022/08/05 06:20:44;;;;;;;379.90;358.35;;;;;;;26.55;53.94;96690.56;5035106;28;20231;-67
2022/08/05 06:23:10;;;;;;;419.88;395.88;;;;;;;26.94;53.03;96681.94;5034960;28;20205;-68
2022/08/05 06:25:35;;;;;;;404.88;381.90;;;;;;;26.89;52.32;96671.41;5034924;28;20226;-68
2022/08/05 06:28:00;;;;;;;313.05;295.60;;;;;;;26.66;52.24;96681.75;5035089;28;20262;-67
2022/08/05 06:30:26;;;;;;;431.40;407.17;;;;;;;26.28;53.86;96683.84;5034398;28;20281;-67
2022/08/05 06:32:52;;;;;;;429.13;405.33;;;;;;;26.75;52.93;96685.13;5033864;28;20273;-68
2022/08/05 06:35:18;;;;;;;351.35;331.90;;;;;;;26.86;52.50;96698.94;5034075;28;20264;-67
2022/08/05 06:37:44;;;;;;;231.95;219.23;;;;;;;26.87;51.68;96698.63;5030225;28;20193;-68
2022/08/05 06:40:10;;;;;;;324.38;306.05;;;;;;;27.68;49.56;96688.94;5029018;28;20194;-69
2022/08/05 06:42:36;;;;;;;535.15;503.38;;;;;;;27.41;50.34;96685.00;5029455;28;20209;-69
2022/08/05 06:45:02;;;;;;;582.78;547.92;;;;;;;27.07;50.54;96675.47;5027840;28;20207;-68
2022/08/05 06:47:27;;;;;;;537.53;505.90;;;;;;;27.37;50.40;96677.91;5028948;28;20213;-68
2022/08/05 06:49:53;;;;;;;553.67;521.42;;;;;;;27.38;49.87;96677.59;5029090;28;20190;-68
2022/08/05 06:52:19;;;;;;;556.28;522.92;;;;;;;26.68;51.69;96681.41;5031356;28;20185;-68
2022/08/05 06:54:44;;;;;;;411.38;387.85;;;;;;;26.88;51.73;96675.19;5033861;28;20636;-68
2022/08/05 06:57:13;;;;;;;509.98;479.48;;;;;;;27.43;49.76;96688.13;5034239;28;20234;-67
2022/08/05 06:59:38;;;;;;;560.60;527.30;;;;;;;27.14;50.38;96685.69;5032092;28;20183;-67
2022/08/05 07:02:05;;;;;;;495.23;466.73;;;;;;;27.73;48.82;96685.22;5028696;28;20197;-68
2022/08/05 07:04:30;;;;;;;406.00;382.77;;;;;;;27.56;49.65;96691.63;5033745;28;20556;-69
2022/08/05 07:06:55;;;;;;;300.65;283.50;;;;;;;27.93;48.74;96695.03;5033139;28;20182;-68
2022/08/05 07:09:21;;;;;;;240.80;227.13;;;;;;;28.63;46.84;96699.00;5034150;28;20315;-68
2022/08/05 07:11:46;;;;;;;238.13;224.75;;;;;;;28.89;46.93;96702.00;5034118;28;20189;-68
2022/08/05 07:16:59;;;;;;;502.15;472.15;;;;;;;27.88;47.93;96719.53;5030311;28;20654;-67
2022/08/05 07:19:27;;;;;;;435.23;409.40;;;;;;;28.03;47.62;96725.00;5033626;28;20212;-65
2022/08/05 07:21:53;;;;;;;399.55;376.13;;;;;;;27.87;48.57;96720.66;5032987;28;20652;-64
2022/08/05 07:24:19;;;;;;;469.55;441.77;;;;;;;28.28;47.10;96720.38;5032621;28;20276;-64
2022/08/05 07:26:45;;;;;;;519.90;489.20;;;;;;;28.19;47.35;96722.44;5032915;28;20309;-64
2022/08/05 07:29:11;;;;;;;361.52;340.25;;;;;;;28.56;45.94;96735.78;5029468;28;20191;-64
2022/08/05 07:31:36;;;;;;;444.98;419.23;;;;;;;28.32;47.31;96731.25;5033718;28;20190;-64
2022/08/05 07:34:03;;;;;;;447.35;421.25;;;;;;;28.02;48.15;96728.84;5032784;28;20190;-64
2022/08/05 07:36:28;;;;;;;480.75;452.63;;;;;;;28.29;47.26;96731.94;5033469;28;20257;-64
2022/08/05 07:38:54;;;;;;;481.55;453.42;;;;;;;28.43;46.65;96735.03;5032379;28;20290;-64
2022/08/05 07:41:21;;;;;;;337.30;317.05;;;;;;;28.07;46.21;96734.00;5019121;28;20187;-64
2022/08/05 07:43:47;;;;;;;526.08;494.58;;;;;;;28.04;47.07;96731.19;5030671;28;20198;-64
2022/08/05 07:46:12;;;;;;;451.73;423.65;;;;;;;27.67;47.24;96733.16;5032951;28;20179;-65
2022/08/05 07:48:38;;;;;;;509.23;477.85;;;;;;;28.17;46.84;96738.16;5033209;28;20191;-67
2022/08/05 07:51:03;;;;;;;524.42;492.38;;;;;;;27.96;46.82;96740.19;5031352;28;20186;-65
2022/08/05 07:53:29;;;;;;;481.70;452.15;;;;;;;28.04;46.85;96741.97;5033182;28;20202;-65
2022/08/05 07:55:54;;;;;;;552.90;518.83;;;;;;;28.18;46.84;96736.25;5033397;28;20261;-65
2022/08/05 07:58:20;;;;;;;574.40;538.92;;;;;;;28.12;46.76;96730.28;5032830;28;20229;-65
2022/08/05 08:00:46;;;;;;;489.15;459.08;;;;;;;28.35;45.91;96738.66;5032133;28;20201;-65
2022/08/05 08:03:12;;;;;;;424.08;397.92;;;;;;;28.41;46.38;96740.00;5032679;28;20194;-65
2022/08/05 08:05:42;;;;;;;303.92;286.33;;;;;;;28.94;45.29;96744.94;5032497;28;20191;-65
2022/08/05 08:08:12;;;;;;;310.13;293.08;;;;;;;28.93;44.32;96735.28;5032851;28;20191;-65
2022/08/05 08:10:37;;;;;;;140.00;132.45;;;;;;;28.60;43.81;96747.44;5032380;28;20216;-65
2022/08/05 08:13:03;;;;;;;90.80;86.18;;;;;;;28.51;45.10;96745.69;5032703;28;20644;-65
2022/08/05 08:15:28;;;;;;;80.50;76.38;;;;;;;28.91;44.43;96739.47;5032213;28;20197;-65
2022/08/05 08:17:54;;;;;;;104.50;99.28;;;;;;;28.60;44.25;96742.03;5031769;28;20584;-65
2022/08/05 08:20:24;;;;;;;109.03;103.68;;;;;;;29.04;43.11;96738.25;5031670;28;20546;-65
2022/08/05 08:22:54;;;;;;;158.30;150.55;;;;;;;28.95;42.10;96743.03;5031910;28;20205;-65
2022/08/05 08:25:20;;;;;;;159.88;152.30;;;;;;;28.98;42.19;96741.56;5027722;28;20559;-65
2022/08/05 08:27:45;;;;;;;183.82;175.30;;;;;;;29.01;42.14;96741.66;5030562;28;20187;-65
2022/08/05 08:30:11;;;;;;;264.02;251.25;;;;;;;28.94;41.88;96741.44;5032224;28;20183;-65
2022/08/05 08:32:37;;;;;;;664.20;624.25;;;;;;;29.32;40.04;96738.97;5032606;28;20190;-65
2022/08/05 08:35:03;;;;;;;728.42;685.95;;;;;;;29.45;39.50;96738.91;5032509;28;20511;-65
2022/08/05 08:37:28;;;;;;;671.60;632.33;;;;;;;28.87;39.92;96739.34;5026139;28;20194;-67
2022/08/05 08:39:54;;;;;;;984.65;917.80;;;;;;;28.20;41.93;96740.16;5031220;28;20206;-65
2022/08/05 08:42:20;;;;;;;943.33;877.65;;;;;;;28.50;40.90;96741.41;5032413;28;20182;-65
2022/08/05 08:44:46;;;;;;;891.88;833.40;;;;;;;29.04;40.17;96743.63;5032102;28;20705;-65
2022/08/05 08:47:13;;;;;;;652.92;612.60;;;;;;;29.21;39.16;96737.91;5031785;28;20182;-65
2022/08/05 08:49:43;;;;;;;583.22;547.72;;;;;;;29.29;39.63;96726.16;5032176;28;20194;-65
2022/08/05 08:52:17;;;;;;;491.67;462.30;;;;;;;29.94;38.51;96723.84;5032157;28;20627;-65
2022/08/05 08:54:43;;;;;;;374.55;353.25;;;;;;;30.24;37.75;96710.59;5031862;28;20643;-65
2022/08/05 08:57:10;;;;;;;197.15;187.00;;;;;;;30.37;37.08;96705.81;5031797;28;20194;-66
2022/08/05 08:59:36;;;;;;;138.88;131.73;;;;;;;30.65;37.20;96705.63;5031129;28;20643;-65
2022/08/05 09:02:05;;;;;;;73.47;69.65;;;;;;;30.17;37.36;96703.09;5032395;28;20179;-65
2022/08/05 09:04:37;;;;;;;48.50;46.03;;;;;;;29.99;38.37;96703.88;5031915;28;20186;-66
2022/08/05 09:07:06;;;;;;;44.47;42.22;;;;;;;30.52;37.37;96705.00;5032267;28;20174;-65
2022/08/05 09:09:35;;;;;;;48.88;46.30;;;;;;;30.70;36.65;96699.91;5032411;28;20183;-65
2022/08/05 09:12:03;;;;;;;69.15;65.75;;;;;;;30.69;36.40;96699.13;5032260;28;20179;-66
2022/08/05 09:14:31;;;;;;;128.23;121.93;;;;;;;29.75;38.28;96694.84;5027296;28;20194;-65
2022/08/05 09:16:57;;;;;;;136.07;129.60;;;;;;;29.39;38.92;96691.69;5025744;28;20191;-65
2022/08/05 09:19:22;;;;;;;113.63;108.22;;;;;;;30.15;37.73;96696.47;5031994;28;20232;-65
2022/08/05 09:21:48;;;;;;;140.68;134.00;;;;;;;29.73;38.41;96683.59;5031676;28;20191;-65
2022/08/05 09:24:13;;;;;;;141.00;134.30;;;;;;;29.15;38.78;96674.50;5031627;28;20222;-65
2022/08/05 09:26:38;;;;;;;34.53;32.78;;;;;;;28.91;39.03;96680.09;5031831;28;20237;-65
2022/08/05 09:29:06;;;;;;;38.92;36.85;;;;;;;29.44;38.45;96678.69;5031384;28;20589;-65
2022/08/05 09:31:33;;;;;;;43.08;40.88;;;;;;;29.08;38.02;96684.34;5031665;28;20237;-65
2022/08/05 09:34:08;;;;;;;41.00;38.92;;;;;;;28.08;39.80;96681.66;5031735;28;20199;-65
2022/08/05 09:36:52;;;;;;;54.47;51.72;;;;;;;28.33;40.16;96674.28;5031684;28;20198;-65
2022/08/05 09:39:18;;;;;;;90.93;86.15;;;;;;;28.62;39.48;96672.34;5030791;28;20707;-65
2022/08/05 09:42:17;;;;;;;90.45;85.75;;;;;;;28.56;40.13;96671.81;5031855;28;20194;-65
2022/08/05 09:44:50;;;;;;;87.88;83.32;;;;;;;29.11;39.27;96657.44;5027202;28;20260;-65
2022/08/05 09:47:21;;;;;;;54.08;51.42;;;;;;;29.01;37.88;96652.56;5031060;28;20608;-65
2022/08/05 09:49:51;;;;;;;63.17;59.80;;;;;;;28.99;37.84;96656.72;5031366;28;20179;-68
2022/08/05 09:52:26;;;;;;;67.15;63.70;;;;;;;28.94;38.15;96665.88;5030863;28;20297;-65
2022/08/05 09:55:06;;;;;;;53.92;51.10;;;;;;;29.01;38.81;96649.09;5031347;28;20193;-65
2022/08/05 09:57:38;;;;;;;91.90;87.55;;;;;;;29.18;37.75;96651.44;5031788;28;20191;-65
2022/08/05 10:00:12;;;;;;;146.48;139.55;;;;;;;29.40;37.38;96658.91;5029425;28;20211;-65
2022/08/05 10:02:37;;;;;;;145.73;138.73;;;;;;;29.45;37.56;96665.97;5031176;28;20182;-65
2022/08/05 10:05:08;;;;;;;152.10;145.00;;;;;;;30.00;37.23;96659.47;5029044;28;20213;-64
2022/08/05 10:07:53;;;;;;;160.98;153.20;;;;;;;29.90;36.77;96657.31;5036278;28;20249;-64
2022/08/05 10:10:25;;;;;;;198.30;188.88;;;;;;;29.92;37.07;96663.19;5034877;28;20237;-66
2022/08/05 10:12:54;;;;;;;187.15;178.20;;;;;;;30.35;36.27;96664.81;5034769;28;20545;-66
2022/08/05 10:15:31;;;;;;;176.15;167.70;;;;;;;30.33;35.79;96653.56;5035240;28;20643;-67
2022/08/05 10:18:21;;;;;;;151.57;144.20;;;;;;;30.56;35.65;96657.91;5030446;28;20209;-64
2022/08/05 10:20:49;;;;;;;152.95;145.50;;;;;;;30.61;35.76;96659.53;5034494;28;20189;-66
2022/08/05 10:23:28;;;;;;;166.18;157.98;;;;;;;30.54;35.89;96656.69;5034597;28;20603;-65
2022/08/05 10:26:00;;;;;;;103.28;98.03;;;;;;;30.09;36.46;96643.84;5034486;28;20230;-66
2022/08/05 10:28:27;;;;;;;143.25;136.20;;;;;;;30.21;36.47;96637.47;5033826;28;20592;-66
2022/08/05 10:30:53;;;;;;;210.27;200.20;;;;;;;30.48;36.66;96639.97;5033002;28;20639;-64
2022/08/05 10:33:22;;;;;;;158.30;150.52;;;;;;;30.47;35.81;96641.13;5029128;28;20191;-64
2022/08/05 10:35:48;;;;;;;129.77;123.35;;;;;;;30.53;35.73;96647.03;5034614;28;20194;-65
2022/08/05 10:38:17;;;;;;;115.68;109.82;;;;;;;30.32;35.74;96649.28;5034123;28;20237;-65
2022/08/05 10:40:48;;;;;;;117.43;111.65;;;;;;;30.54;35.75;96640.44;5033638;28;20241;-65
2022/08/05 10:43:28;;;;;;;134.77;128.20;;;;;;;30.62;36.60;96636.75;5034349;28;20198;-66
2022/08/05 10:45:58;;;;;;;138.40;131.50;;;;;;;30.60;36.45;96640.94;5034854;28;20221;-66
2022/08/05 10:48:39;;;;;;;114.28;108.63;;;;;;;30.28;36.24;96635.69;5034077;28;20233;-64
2022/08/05 10:51:18;;;;;;;103.97;98.80;;;;;;;30.15;36.70;96642.38;5032808;28;20178;-65
2022/08/05 10:53:55;;;;;;;106.15;100.93;;;;;;;29.94;36.93;96636.56;5030089;28;20233;-66
2022/08/05 10:56:29;;;;;;;126.35;120.03;;;;;;;30.48;36.75;96639.22;5029311;28;20190;-66
2022/08/05 10:58:57;;;;;;;114.45;108.78;;;;;;;30.60;36.05;96635.53;5027373;28;20542;-65
2022/08/05 11:01:34;;;;;;;113.50;107.90;;;;;;;30.36;36.71;96642.03;5030061;28;20261;-65
2022/08/05 11:04:01;;;;;;;110.85;105.28;;;;;;;30.47;36.16;96632.19;5028086;28;20213;-67
2022/08/05 11:06:26;;;;;;;105.75;100.13;;;;;;;30.59;36.25;96640.19;5033092;28;20270;-65
2022/08/05 11:09:21;;;;;;;119.90;113.90;;;;;;;30.71;36.24;96637.28;5034051;28;20265;-65
2022/08/05 11:11:48;;;;;;;114.28;108.60;;;;;;;30.96;36.10;96641.22;5034002;28;20245;-65